METAR Data
IDs: Format: Raw Decoded Include TAF

Data at: 0120 UTC 06 Dec 2019

KM08 060115Z AUTO 13004KT 10SM CLR 11/02 A3007 RMK A01
KM08 060055Z AUTO 13004KT 10SM CLR 12/02 A3008 RMK A01
KM08 060035Z AUTO 14004KT 10SM CLR 11/02 A3008 RMK A01
KM08 060015Z AUTO 13004KT 10SM FEW120 12/02 A3008 RMK A01
KM08 052355Z AUTO 14004KT 10SM FEW120 12/02 A3007 RMK A01
KM08 052335Z AUTO 12004KT 10SM FEW100 SCT120 13/02 A3007 RMK A01
KM08 052315Z AUTO 00000KT 10SM CLR 13/02 A3007 RMK A01
KM08 052255Z AUTO 12004KT 10SM CLR 13/02 A3006 RMK A01
KM08 052235Z AUTO 14003KT 10SM CLR 14/02 A3006 RMK A01
KM08 052215Z AUTO 14004KT 10SM CLR 14/02 A3007 RMK A01
KM08 052155Z AUTO 12004KT 10SM CLR 15/01 A3006 RMK A01
KM08 052135Z AUTO 13004KT 10SM FEW100 15/01 A3006 RMK A01
KM08 052115Z AUTO 14003KT 10SM SCT100 15/01 A3006 RMK A01
KM08 052055Z AUTO 13004KT 10SM CLR 15/01 A3006 RMK A01
KM08 052035Z AUTO 14006KT 10SM CLR 16/00 A3006 RMK A01
KM08 052015Z AUTO 16006KT 10SM CLR 16/00 A3006 RMK A01
KM08 051955Z AUTO VRB06KT 10SM FEW120 16/01 A3006 RMK A01
KM08 051935Z AUTO 17008KT 10SM FEW120 16/00 A3006 RMK A01
KM08 051915Z AUTO 16006KT 10SM FEW110 17/01 A3006 RMK A01
KM08 051855Z AUTO VRB06KT 10SM BKN110 17/02 A3007 RMK A01
KM08 051835Z AUTO 15008KT 10SM FEW120 17/01 A3007 RMK A01
KM08 051815Z AUTO 16008KT 10SM CLR 17/01 A3008 RMK A01
KM08 051755Z AUTO 14006KT 10SM CLR 16/01 A3009 RMK A01
KM08 051735Z AUTO 13007KT 10SM CLR 16/01 A3010 RMK A01
KM08 051715Z AUTO 13007KT 10SM CLR 15/02 A3011 RMK A01
KM08 051655Z AUTO 11005KT 10SM CLR 15/03 A3012 RMK A01
KM08 051615Z AUTO VRB03KT 10SM CLR 13/04 A3013 RMK A01
KM08 051555Z AUTO 00000KT 10SM CLR 12/04 A3013 RMK A01
KM08 051535Z AUTO 13004KT 10SM CLR 11/04 A3013 RMK A01
KM08 051515Z AUTO 14003KT 10SM CLR 09/03 A3013 RMK A01
KM08 051455Z AUTO 00000KT 10SM CLR 08/03 A3012 RMK A01
KM08 051435Z AUTO 00000KT 10SM CLR 06/03 A3012 RMK A01
KM08 051415Z AUTO 00000KT 10SM CLR 06/03 A3012 RMK A01
KM08 051355Z AUTO 00000KT 10SM CLR 05/03 A3012 RMK A01
KM08 051335Z AUTO 00000KT 10SM CLR 03/01 A3011 RMK A01
KM08 051315Z AUTO 00000KT 10SM CLR 01/01 A3011 RMK A01
KM08 051255Z AUTO 00000KT 10SM CLR 01/M00 A3011 RMK A01
KM08 051235Z AUTO 00000KT 10SM CLR 01/00 A3010 RMK A01
KM08 051215Z AUTO 00000KT 10SM CLR 02/01 A3009 RMK A01
KM08 051155Z AUTO 00000KT 10SM CLR 02/01 A3009 RMK A01
KM08 051135Z AUTO 00000KT 10SM CLR 02/01 A3008 RMK A01
KM08 051115Z AUTO 00000KT 10SM CLR 02/01 A3007 RMK A01
KM08 051055Z AUTO 00000KT 10SM CLR 03/01 A3006 RMK A01
KM08 051035Z AUTO 00000KT 10SM CLR 02/01 A3006 RMK A01
KM08 051015Z AUTO 00000KT 10SM CLR 02/01 A3006 RMK A01
KM08 050955Z AUTO 00000KT 10SM CLR 01/00 A3006 RMK A01
KM08 050935Z AUTO 00000KT 10SM CLR 01/00 A3006 RMK A01
KM08 050915Z AUTO 00000KT 10SM CLR 01/00 A3005 RMK A01
KM08 050855Z AUTO 00000KT 10SM CLR 01/00 A3004 RMK A01
KM08 050835Z AUTO 00000KT 10SM CLR 01/M00 A3005 RMK A01
KM08 050810Z AUTO 00000KT 10SM CLR 01/00 A3004 RMK A01
KM08 050755Z AUTO 00000KT 10SM CLR 01/00 A3004 RMK A01
KM08 050735Z AUTO 00000KT 10SM CLR 01/M00 A3003 RMK A01
KM08 050715Z AUTO 00000KT 10SM CLR 01/00 A3003 RMK A01
KM08 050655Z AUTO 00000KT 10SM CLR 02/00 A3003 RMK A01
KM08 050615Z AUTO 00000KT 10SM CLR 01/00 A3003 RMK A01
KM08 050555Z AUTO 00000KT 10SM CLR 01/M00 A3002 RMK A01
KM08 050535Z AUTO 00000KT 10SM CLR 02/00 A3002 RMK A01
KM08 050515Z AUTO 00000KT 10SM CLR 02/00 A3002 RMK A01
KM08 050455Z AUTO 00000KT 10SM CLR 02/01 A3002 RMK A01
KM08 050435Z AUTO 00000KT 10SM CLR 03/01 A3002 RMK A01
KM08 050415Z AUTO 00000KT 10SM CLR 03/01 A3002 RMK A01
KM08 050355Z AUTO 00000KT 10SM CLR 04/01 A3002 RMK A01
KM08 050335Z AUTO 00000KT 10SM CLR 04/01 A3002 RMK A01
KM08 050315Z AUTO 00000KT 10SM CLR 04/01 A3001 RMK A01
KM08 050255Z AUTO 00000KT 10SM CLR 04/01 A3002 RMK A01
KM08 050235Z AUTO 00000KT 10SM CLR 04/01 A3002 RMK A01
KM08 050215Z AUTO 00000KT 10SM CLR 03/00 A3002 RMK A01
KM08 050155Z AUTO 00000KT 10SM CLR 04/00 A3001 RMK A01
KM08 050135Z AUTO 00000KT 10SM CLR 03/01 A3001 RMK A01
KM08 050115Z AUTO 00000KT 10SM CLR 04/01 A3000 RMK A01
KM08 050055Z AUTO 00000KT 10SM CLR 05/01 A3000 RMK A01
KM08 050035Z AUTO 00000KT 10SM CLR 06/01 A3000 RMK A01
KM08 050015Z AUTO 00000KT 10SM CLR 06/01 A3000 RMK A01
KM08 042355Z AUTO 00000KT 10SM CLR 06/01 A2999 RMK A01
KM08 042335Z AUTO 00000KT 10SM CLR 08/01 A2999 RMK A01
KM08 042315Z AUTO 00000KT 10SM CLR 11/M00 A2998 RMK A01
KM08 042255Z AUTO 26003KT 10SM CLR 12/M01 A2998 RMK A01
KM08 042235Z AUTO 00000KT 10SM CLR 13/M00 A2997 RMK A01
KM08 042215Z AUTO 25004KT 10SM CLR 14/M00 A2997 RMK A01
KM08 042155Z AUTO 24005KT 10SM CLR 14/M01 A2997 RMK A01
KM08 042135Z AUTO 29006KT 10SM CLR 15/M03 A2997 RMK A01
KM08 042115Z AUTO 27005KT 10SM CLR 15/M02 A2997 RMK A01
KM08 042055Z AUTO 26004KT 10SM CLR 15/M02 A2996 RMK A01
KM08 042035Z AUTO VRB04KT 10SM CLR 15/M02 A2995 RMK A01
KM08 042015Z AUTO 28005G10KT 10SM CLR 15/M01 A2995 RMK A01
KM08 041955Z AUTO 29005KT 10SM CLR 15/M01 A2994 RMK A01
KM08 041935Z AUTO VRB06KT 10SM CLR 15/M01 A2994 RMK A01
KM08 041915Z AUTO 25010KT 10SM CLR 15/M00 A2994 RMK A01
KM08 041855Z AUTO 26008KT 10SM CLR 15/00 A2995 RMK A01
KM08 041835Z AUTO 29005G11KT 10SM CLR 14/00 A2996 RMK A01
KM08 041815Z AUTO 25008KT 10SM CLR 15/01 A2996 RMK A01
KM08 041755Z AUTO 29004KT 10SM CLR 14/01 A2997 RMK A01
KM08 041735Z AUTO VRB06KT 10SM CLR 14/01 A2997 RMK A01
KM08 041715Z AUTO VRB05KT 10SM CLR 13/01 A2998 RMK A01
KM08 041655Z AUTO 31007G12KT 10SM CLR 13/02 A2999 RMK A01
KM08 041635Z AUTO VRB03KT 10SM CLR 12/02 A2999 RMK A01
KM08 041615Z AUTO 24006KT 10SM CLR 11/02 A3000 RMK A01
KM08 041555Z AUTO 27005KT 10SM CLR 10/02 A3000 RMK A01
KM08 041535Z AUTO 28004G11KT 10SM CLR 10/02 A3000 RMK A01
KM08 041515Z AUTO 30005KT 10SM CLR 09/02 A2999 RMK A01
KM08 041455Z AUTO VRB05KT 10SM CLR 08/02 A2998 RMK A01
KM08 041435Z AUTO VRB05KT 10SM CLR 08/02 A2998 RMK A01
KM08 041415Z AUTO 00000KT 10SM CLR 06/02 A2996 RMK A01
KM08 041355Z AUTO 00000KT 10SM CLR 03/01 A2995 RMK A01
KM08 041335Z AUTO 00000KT 10SM CLR 01/M00 A2995 RMK A01